Flight Track Log - Related Links

Times and Time Zones

All times are in EDT time to prevent confusion due to time zone crossing. See the N319EE flight status page for this flight to view local times or setup timezone preferences in your user account.

Time Position Orientation Groundspeed Altitude Reporting Facility
EDT Latitude Longitude Course Direction KTS MPH feet Rate Location/Type
Wed 07:03:08 AM 42.1675 -75.9750 307° West 148 170 3,800  Level New York Center
Wed 07:04:08 AM 42.1839 -76.0264 293° West 187 215 5,900 2,050 Climbing New York Center
Wed 07:05:08 AM 42.2128 -76.0792 306° West 187 215 7,900 1,900 Climbing New York Center
Wed 07:06:08 AM 42.2419 -76.1264 310° West 176 203 9,700 1,050 Climbing New York Center
Wed 07:07:08 AM 42.2786 -76.1911 307° West 178 205 10,000 150 Climbing New York Center
Wed 07:08:00 AM 42.3582 -76.2619 307° West  Level FlightAware Approximate
Wed 07:08:08 AM 42.3153 -76.2531 309° West 209 241 10,000  Level New York Center
Wed 07:09:08 AM 42.3578 -76.3211 310° West 232 267 10,000  Level New York Center
Wed 07:10:08 AM 42.3983 -76.3919 308° West 238 274 10,000 -50 Level New York Center
Wed 07:11:08 AM 42.4386 -76.4628 308° West 238 274 9,900 -50 Descending New York Center
Wed 07:12:08 AM 42.4789 -76.5308 309° West 238 274 9,900  Level New York Center
Wed 07:13:08 AM 42.5192 -76.6019 308° West 238 274 9,900 50 Level New York Center
Wed 07:14:08 AM 42.5597 -76.6703 309° West 238 274 10,000  Climbing New York Center
Wed 07:15:29 AM 42.6111 -76.7644 307° West 236 272 9,900 -61 Descending Cleveland Center
Wed 07:15:46 AM 42.6267 -76.7942 305° West 237 273 9,900 97 Level Cleveland Center
Wed 07:16:31 AM 42.6511 -76.8336 310° West 236 272 10,000 98 Climbing Cleveland Center
Wed 07:16:47 AM 42.6700 -76.8653 309° West 232 267 10,000 -590 Level Cleveland Center
Wed 07:17:32 AM 42.6908 -76.9042 306° West 236 272 9,400 -1,082 Descending Cleveland Center
Wed 07:17:48 AM 42.7108 -76.9386 308° West 251 289 8,900 -1,258 Descending Cleveland Center
Wed 07:18:34 AM 42.7439 -76.9969 308° West 255 293 8,100 -1,000 Descending Cleveland Center
Wed 07:18:48 AM 42.7550 -77.0189 305° West 261 300 7,900 -968 Descending Cleveland Center
Wed 07:19:36 AM 42.7817 -77.0808 300° West 261 300 7,100 -1,082 Descending Cleveland Center
Wed 07:19:49 AM 42.7900 -77.1025 298° West 260 299 6,800 -1,355 Descending Cleveland Center
Wed 07:20:38 AM 42.8175 -77.1644 301° West 260 299 5,700 -1,279 Descending Cleveland Center
Wed 07:20:50 AM 42.8269 -77.1869 300° West 260 299 5,500 -885 Descending Cleveland Center
Wed 07:21:39 AM 42.8542 -77.2489 301° West 260 299 4,800 -1,000 Descending Cleveland Center
Wed 07:21:50 AM 42.8642 -77.2714 301° West 260 299 4,500 -667 Descending Cleveland Center
Wed 07:22:51 AM 42.9011 -77.3558 301° West 258 297 4,000 -541 Descending Cleveland Center
Wed 07:23:52 AM 42.9400 -77.4411 302° West 251 289 3,400 -684 Descending Cleveland Center
Wed 07:24:45 AM 42.9736 -77.5119 303° West 256 295 2,700 -474 Descending Cleveland Center
Wed 07:25:46 AM 43.0100 -77.5944 301° West 256 295 2,500 -293 Descending Cleveland Center
Wed 07:26:48 AM 43.0561 -77.6558 316° Northwest 247 284 2,100 -629 Descending Cleveland Center
Wed 07:27:50 AM 43.0994 -77.6975 325° Northwest 215 247 1,200 -726 Descending Cleveland Center
Wed 07:28:52 AM 43.1197 -77.6617 52° Northeast 160 184 600 -581 Descending Cleveland Center

Login

Don't have an account? Register now (free) for customized features, flight alerts, and more!